sensor_id;sensor_type;location;lat;lon;timestamp;P1;durP1;ratioP1;P2;durP2;ratioP2
74679;SDS011;63211;48.548;2.704;2022-09-03T00:00:50;1.88;;;1.10;;
74679;SDS011;63211;48.548;2.704;2022-09-03T00:05:50;1.35;;;0.85;;
74679;SDS011;63211;48.548;2.704;2022-09-03T00:08:27;1.83;;;0.98;;
74679;SDS011;63211;48.548;2.704;2022-09-03T00:11:00;1.33;;;0.80;;
74679;SDS011;63211;48.548;2.704;2022-09-03T00:13:34;1.25;;;0.90;;
74679;SDS011;63211;48.548;2.704;2022-09-03T00:16:04;1.70;;;1.13;;
74679;SDS011;63211;48.548;2.704;2022-09-03T00:18:36;1.90;;;1.20;;
74679;SDS011;63211;48.548;2.704;2022-09-03T00:21:10;1.80;;;0.90;;
74679;SDS011;63211;48.548;2.704;2022-09-03T00:23:41;1.80;;;1.20;;
74679;SDS011;63211;48.548;2.704;2022-09-03T00:26:15;1.35;;;0.90;;
74679;SDS011;63211;48.548;2.704;2022-09-03T00:28:49;1.52;;;0.90;;
74679;SDS011;63211;48.548;2.704;2022-09-03T00:31:20;1.23;;;0.90;;
74679;SDS011;63211;48.548;2.704;2022-09-03T00:33:51;0.85;;;0.50;;
74679;SDS011;63211;48.548;2.704;2022-09-03T00:36:24;1.67;;;1.05;;
74679;SDS011;63211;48.548;2.704;2022-09-03T00:38:57;1.55;;;1.00;;
74679;SDS011;63211;48.548;2.704;2022-09-03T00:41:25;1.67;;;0.80;;
74679;SDS011;63211;48.548;2.704;2022-09-03T00:44:08;1.55;;;0.88;;
74679;SDS011;63211;48.548;2.704;2022-09-03T00:46:55;1.80;;;1.05;;
74679;SDS011;63211;48.548;2.704;2022-09-03T00:49:30;2.47;;;0.93;;
74679;SDS011;63211;48.548;2.704;2022-09-03T00:52:05;2.03;;;1.20;;
74679;SDS011;63211;48.548;2.704;2022-09-03T00:54:39;1.83;;;1.00;;
74679;SDS011;63211;48.548;2.704;2022-09-03T00:57:22;1.75;;;0.82;;
74679;SDS011;63211;48.548;2.704;2022-09-03T01:00:00;2.05;;;1.00;;
74679;SDS011;63211;48.548;2.704;2022-09-03T01:02:35;1.08;;;0.80;;
74679;SDS011;63211;48.548;2.704;2022-09-03T01:05:17;1.50;;;0.90;;
74679;SDS011;63211;48.548;2.704;2022-09-03T01:07:53;1.77;;;1.10;;
74679;SDS011;63211;48.548;2.704;2022-09-03T01:10:34;1.67;;;0.93;;
74679;SDS011;63211;48.548;2.704;2022-09-03T01:13:11;1.45;;;0.90;;
74679;SDS011;63211;48.548;2.704;2022-09-03T01:15:44;1.70;;;1.35;;
74679;SDS011;63211;48.548;2.704;2022-09-03T01:18:18;2.08;;;1.00;;
74679;SDS011;63211;48.548;2.704;2022-09-03T01:20:58;1.63;;;1.00;;
74679;SDS011;63211;48.548;2.704;2022-09-03T01:23:55;2.40;;;1.10;;
74679;SDS011;63211;48.548;2.704;2022-09-03T01:26:44;1.70;;;0.90;;
74679;SDS011;63211;48.548;2.704;2022-09-03T01:29:25;1.67;;;0.93;;
74679;SDS011;63211;48.548;2.704;2022-09-03T01:32:00;3.03;;;1.23;;
74679;SDS011;63211;48.548;2.704;2022-09-03T01:34:36;1.55;;;1.00;;
74679;SDS011;63211;48.548;2.704;2022-09-03T01:37:13;1.30;;;0.98;;
74679;SDS011;63211;48.548;2.704;2022-09-03T01:39:43;1.63;;;1.00;;
74679;SDS011;63211;48.548;2.704;2022-09-03T01:42:19;1.38;;;1.00;;
74679;SDS011;63211;48.548;2.704;2022-09-03T01:45:02;2.30;;;1.17;;
74679;SDS011;63211;48.548;2.704;2022-09-03T01:47:45;1.40;;;1.02;;
74679;SDS011;63211;48.548;2.704;2022-09-03T01:50:24;1.98;;;0.90;;
74679;SDS011;63211;48.548;2.704;2022-09-03T01:53:02;2.00;;;1.20;;
74679;SDS011;63211;48.548;2.704;2022-09-03T01:55:35;2.00;;;1.10;;
74679;SDS011;63211;48.548;2.704;2022-09-03T01:58:15;2.05;;;1.13;;
74679;SDS011;63211;48.548;2.704;2022-09-03T02:00:48;1.52;;;0.93;;
74679;SDS011;63211;48.548;2.704;2022-09-03T02:03:22;2.10;;;1.02;;
74679;SDS011;63211;48.548;2.704;2022-09-03T02:05:51;2.15;;;1.20;;
74679;SDS011;63211;48.548;2.704;2022-09-03T02:08:18;2.20;;;1.20;;
74679;SDS011;63211;48.548;2.704;2022-09-03T02:10:45;1.80;;;0.98;;
74679;SDS011;63211;48.548;2.704;2022-09-03T02:13:15;2.65;;;0.90;;
74679;SDS011;63211;48.548;2.704;2022-09-03T02:15:45;1.42;;;0.90;;
74679;SDS011;63211;48.548;2.704;2022-09-03T02:18:16;2.33;;;1.20;;
74679;SDS011;63211;48.548;2.704;2022-09-03T02:20:45;2.17;;;1.20;;
74679;SDS011;63211;48.548;2.704;2022-09-03T02:23:13;2.47;;;1.30;;
74679;SDS011;63211;48.548;2.704;2022-09-03T02:25:43;3.15;;;1.30;;
74679;SDS011;63211;48.548;2.704;2022-09-03T02:28:12;2.40;;;1.42;;
74679;SDS011;63211;48.548;2.704;2022-09-03T02:30:40;1.67;;;1.02;;
74679;SDS011;63211;48.548;2.704;2022-09-03T02:33:08;2.10;;;1.38;;
74679;SDS011;63211;48.548;2.704;2022-09-03T02:35:35;2.20;;;1.10;;
74679;SDS011;63211;48.548;2.704;2022-09-03T02:38:09;1.80;;;1.30;;
74679;SDS011;63211;48.548;2.704;2022-09-03T02:40:36;2.13;;;1.20;;
74679;SDS011;63211;48.548;2.704;2022-09-03T02:43:03;2.40;;;1.13;;
74679;SDS011;63211;48.548;2.704;2022-09-03T02:45:33;2.08;;;1.10;;
74679;SDS011;63211;48.548;2.704;2022-09-03T02:48:02;3.33;;;1.33;;
74679;SDS011;63211;48.548;2.704;2022-09-03T02:50:30;1.75;;;0.98;;
74679;SDS011;63211;48.548;2.704;2022-09-03T02:52:58;2.28;;;1.20;;
74679;SDS011;63211;48.548;2.704;2022-09-03T02:55:24;1.92;;;0.90;;
74679;SDS011;63211;48.548;2.704;2022-09-03T02:57:51;2.70;;;1.30;;
74679;SDS011;63211;48.548;2.704;2022-09-03T03:00:18;2.38;;;1.20;;
74679;SDS011;63211;48.548;2.704;2022-09-03T03:02:44;2.05;;;1.20;;
74679;SDS011;63211;48.548;2.704;2022-09-03T03:05:12;1.85;;;1.20;;
74679;SDS011;63211;48.548;2.704;2022-09-03T03:07:48;1.83;;;1.10;;
74679;SDS011;63211;48.548;2.704;2022-09-03T03:10:14;2.00;;;1.50;;
74679;SDS011;63211;48.548;2.704;2022-09-03T03:12:41;1.75;;;1.10;;
74679;SDS011;63211;48.548;2.704;2022-09-03T03:15:08;2.15;;;1.40;;
74679;SDS011;63211;48.548;2.704;2022-09-03T03:17:35;2.03;;;1.27;;
74679;SDS011;63211;48.548;2.704;2022-09-03T03:20:02;1.50;;;0.95;;
74679;SDS011;63211;48.548;2.704;2022-09-03T03:22:29;2.40;;;1.30;;
74679;SDS011;63211;48.548;2.704;2022-09-03T03:24:57;1.33;;;0.98;;
74679;SDS011;63211;48.548;2.704;2022-09-03T03:27:23;1.63;;;1.10;;
74679;SDS011;63211;48.548;2.704;2022-09-03T03:29:51;1.98;;;1.13;;
74679;SDS011;63211;48.548;2.704;2022-09-03T03:32:18;2.10;;;1.17;;
74679;SDS011;63211;48.548;2.704;2022-09-03T03:34:45;1.75;;;1.20;;
74679;SDS011;63211;48.548;2.704;2022-09-03T03:37:12;2.75;;;1.10;;
74679;SDS011;63211;48.548;2.704;2022-09-03T03:39:38;2.30;;;1.15;;
74679;SDS011;63211;48.548;2.704;2022-09-03T03:42:06;1.73;;;1.02;;
74679;SDS011;63211;48.548;2.704;2022-09-03T03:44:33;1.40;;;1.02;;
74679;SDS011;63211;48.548;2.704;2022-09-03T03:46:59;1.83;;;1.13;;
74679;SDS011;63211;48.548;2.704;2022-09-03T03:49:30;2.10;;;1.10;;
74679;SDS011;63211;48.548;2.704;2022-09-03T03:51:56;1.85;;;1.45;;
74679;SDS011;63211;48.548;2.704;2022-09-03T03:54:23;2.22;;;1.35;;
74679;SDS011;63211;48.548;2.704;2022-09-03T03:56:49;2.15;;;1.20;;
74679;SDS011;63211;48.548;2.704;2022-09-03T03:59:17;1.60;;;1.00;;
74679;SDS011;63211;48.548;2.704;2022-09-03T04:01:44;2.05;;;1.13;;
74679;SDS011;63211;48.548;2.704;2022-09-03T04:04:11;2.90;;;1.08;;
74679;SDS011;63211;48.548;2.704;2022-09-03T04:06:38;1.80;;;1.17;;
74679;SDS011;63211;48.548;2.704;2022-09-03T04:09:05;2.17;;;1.15;;
74679;SDS011;63211;48.548;2.704;2022-09-03T04:11:31;3.50;;;1.33;;
74679;SDS011;63211;48.548;2.704;2022-09-03T04:13:58;1.73;;;1.10;;
74679;SDS011;63211;48.548;2.704;2022-09-03T04:16:26;1.17;;;0.90;;
74679;SDS011;63211;48.548;2.704;2022-09-03T04:18:53;1.98;;;1.20;;
74679;SDS011;63211;48.548;2.704;2022-09-03T04:21:22;2.25;;;1.25;;
74679;SDS011;63211;48.548;2.704;2022-09-03T04:23:49;1.63;;;1.10;;
74679;SDS011;63211;48.548;2.704;2022-09-03T04:26:18;1.95;;;1.33;;
74679;SDS011;63211;48.548;2.704;2022-09-03T04:28:46;1.55;;;0.98;;
74679;SDS011;63211;48.548;2.704;2022-09-03T04:31:15;2.38;;;0.93;;
74679;SDS011;63211;48.548;2.704;2022-09-03T04:33:45;2.38;;;0.98;;
74679;SDS011;63211;48.548;2.704;2022-09-03T04:36:11;1.92;;;1.10;;
74679;SDS011;63211;48.548;2.704;2022-09-03T04:38:41;1.73;;;1.00;;
74679;SDS011;63211;48.548;2.704;2022-09-03T04:41:09;1.95;;;1.08;;
74679;SDS011;63211;48.548;2.704;2022-09-03T04:43:37;1.67;;;0.82;;
74679;SDS011;63211;48.548;2.704;2022-09-03T04:46:06;1.50;;;0.90;;
74679;SDS011;63211;48.548;2.704;2022-09-03T04:48:33;3.28;;;0.88;;
74679;SDS011;63211;48.548;2.704;2022-09-03T04:51:03;1.70;;;0.90;;
74679;SDS011;63211;48.548;2.704;2022-09-03T04:53:32;1.38;;;0.80;;
74679;SDS011;63211;48.548;2.704;2022-09-03T04:55:59;2.83;;;1.33;;
74679;SDS011;63211;48.548;2.704;2022-09-03T04:58:26;1.70;;;0.90;;
74679;SDS011;63211;48.548;2.704;2022-09-03T05:00:53;1.42;;;0.90;;
74679;SDS011;63211;48.548;2.704;2022-09-03T05:03:20;1.20;;;0.98;;
74679;SDS011;63211;48.548;2.704;2022-09-03T05:05:51;2.17;;;0.90;;
74679;SDS011;63211;48.548;2.704;2022-09-03T05:08:20;1.85;;;1.00;;
74679;SDS011;63211;48.548;2.704;2022-09-03T05:10:47;1.95;;;0.95;;
74679;SDS011;63211;48.548;2.704;2022-09-03T05:13:13;3.75;;;1.00;;
74679;SDS011;63211;48.548;2.704;2022-09-03T05:15:40;2.58;;;1.00;;
74679;SDS011;63211;48.548;2.704;2022-09-03T05:18:09;3.53;;;1.20;;
74679;SDS011;63211;48.548;2.704;2022-09-03T05:20:37;2.70;;;0.95;;
74679;SDS011;63211;48.548;2.704;2022-09-03T05:23:03;4.32;;;1.23;;
74679;SDS011;63211;48.548;2.704;2022-09-03T05:25:31;12.52;;;3.33;;
74679;SDS011;63211;48.548;2.704;2022-09-03T05:27:58;15.40;;;2.78;;
74679;SDS011;63211;48.548;2.704;2022-09-03T05:30:25;11.32;;;2.55;;
74679;SDS011;63211;48.548;2.704;2022-09-03T05:32:52;10.10;;;2.25;;
74679;SDS011;63211;48.548;2.704;2022-09-03T05:35:19;11.05;;;2.47;;
74679;SDS011;63211;48.548;2.704;2022-09-03T05:37:45;8.85;;;2.03;;
74679;SDS011;63211;48.548;2.704;2022-09-03T05:40:12;5.88;;;1.70;;
74679;SDS011;63211;48.548;2.704;2022-09-03T05:42:40;3.50;;;1.60;;
74679;SDS011;63211;48.548;2.704;2022-09-03T05:45:07;6.68;;;1.35;;
74679;SDS011;63211;48.548;2.704;2022-09-03T05:47:35;2.97;;;1.10;;
74679;SDS011;63211;48.548;2.704;2022-09-03T05:50:04;4.63;;;1.10;;
74679;SDS011;63211;48.548;2.704;2022-09-03T05:52:32;3.20;;;1.10;;
74679;SDS011;63211;48.548;2.704;2022-09-03T05:54:59;1.52;;;0.82;;
74679;SDS011;63211;48.548;2.704;2022-09-03T05:57:26;3.97;;;1.10;;
74679;SDS011;63211;48.548;2.704;2022-09-03T05:59:55;2.53;;;0.90;;
74679;SDS011;63211;48.548;2.704;2022-09-03T06:02:21;2.75;;;1.08;;
74679;SDS011;63211;48.548;2.704;2022-09-03T06:04:48;2.53;;;0.95;;
74679;SDS011;63211;48.548;2.704;2022-09-03T06:07:15;2.78;;;1.33;;
74679;SDS011;63211;48.548;2.704;2022-09-03T06:09:41;3.53;;;1.10;;
74679;SDS011;63211;48.548;2.704;2022-09-03T06:12:08;2.47;;;1.00;;
74679;SDS011;63211;48.548;2.704;2022-09-03T06:14:34;4.30;;;1.30;;
74679;SDS011;63211;48.548;2.704;2022-09-03T06:17:02;4.78;;;1.10;;
74679;SDS011;63211;48.548;2.704;2022-09-03T06:19:29;2.28;;;1.13;;
74679;SDS011;63211;48.548;2.704;2022-09-03T06:21:56;3.17;;;1.13;;
74679;SDS011;63211;48.548;2.704;2022-09-03T06:24:22;3.72;;;0.75;;
74679;SDS011;63211;48.548;2.704;2022-09-03T06:26:51;3.53;;;0.90;;
74679;SDS011;63211;48.548;2.704;2022-09-03T06:29:18;1.98;;;0.88;;
74679;SDS011;63211;48.548;2.704;2022-09-03T06:31:45;2.13;;;1.13;;
74679;SDS011;63211;48.548;2.704;2022-09-03T06:34:14;2.22;;;0.85;;
74679;SDS011;63211;48.548;2.704;2022-09-03T06:36:42;1.63;;;0.90;;
74679;SDS011;63211;48.548;2.704;2022-09-03T06:39:09;1.40;;;0.85;;
74679;SDS011;63211;48.548;2.704;2022-09-03T06:41:35;2.20;;;1.00;;
74679;SDS011;63211;48.548;2.704;2022-09-03T06:44:03;1.70;;;0.90;;
74679;SDS011;63211;48.548;2.704;2022-09-03T06:46:31;3.13;;;0.80;;
74679;SDS011;63211;48.548;2.704;2022-09-03T06:48:58;4.22;;;0.90;;
74679;SDS011;63211;48.548;2.704;2022-09-03T06:51:27;2.05;;;0.88;;
74679;SDS011;63211;48.548;2.704;2022-09-03T06:53:58;2.53;;;0.82;;
74679;SDS011;63211;48.548;2.704;2022-09-03T06:58:52;1.73;;;0.80;;
74679;SDS011;63211;48.548;2.704;2022-09-03T07:01:20;2.90;;;0.95;;
74679;SDS011;63211;48.548;2.704;2022-09-03T07:03:51;2.65;;;0.80;;
74679;SDS011;63211;48.548;2.704;2022-09-03T07:06:21;1.88;;;0.73;;
74679;SDS011;63211;48.548;2.704;2022-09-03T07:08:50;1.45;;;0.73;;
74679;SDS011;63211;48.548;2.704;2022-09-03T07:11:18;3.00;;;0.90;;
74679;SDS011;63211;48.548;2.704;2022-09-03T07:13:47;3.67;;;0.80;;
74679;SDS011;63211;48.548;2.704;2022-09-03T07:16:16;1.65;;;0.77;;
74679;SDS011;63211;48.548;2.704;2022-09-03T07:18:44;0.85;;;0.57;;
74679;SDS011;63211;48.548;2.704;2022-09-03T07:21:12;2.08;;;0.98;;
74679;SDS011;63211;48.548;2.704;2022-09-03T07:23:39;1.73;;;0.90;;
74679;SDS011;63211;48.548;2.704;2022-09-03T07:26:08;2.08;;;0.85;;
74679;SDS011;63211;48.548;2.704;2022-09-03T07:28:38;2.40;;;0.77;;
74679;SDS011;63211;48.548;2.704;2022-09-03T07:31:08;2.05;;;0.90;;
74679;SDS011;63211;48.548;2.704;2022-09-03T07:33:36;1.40;;;0.68;;
74679;SDS011;63211;48.548;2.704;2022-09-03T07:36:03;1.05;;;0.70;;
74679;SDS011;63211;48.548;2.704;2022-09-03T07:38:31;1.45;;;0.70;;
74679;SDS011;63211;48.548;2.704;2022-09-03T07:40:58;1.10;;;0.77;;
74679;SDS011;63211;48.548;2.704;2022-09-03T07:43:27;1.30;;;0.50;;
74679;SDS011;63211;48.548;2.704;2022-09-03T07:45:54;1.42;;;0.60;;
74679;SDS011;63211;48.548;2.704;2022-09-03T07:48:22;1.48;;;0.75;;
74679;SDS011;63211;48.548;2.704;2022-09-03T07:50:49;1.38;;;0.80;;
74679;SDS011;63211;48.548;2.704;2022-09-03T07:53:16;1.60;;;0.80;;
74679;SDS011;63211;48.548;2.704;2022-09-03T07:55:44;1.33;;;0.70;;
74679;SDS011;63211;48.548;2.704;2022-09-03T07:58:11;2.00;;;0.57;;
74679;SDS011;63211;48.548;2.704;2022-09-03T08:00:39;1.73;;;0.70;;
74679;SDS011;63211;48.548;2.704;2022-09-03T08:03:06;1.45;;;0.60;;
74679;SDS011;63211;48.548;2.704;2022-09-03T08:05:33;1.63;;;0.85;;
74679;SDS011;63211;48.548;2.704;2022-09-03T08:08:01;1.17;;;0.50;;
74679;SDS011;63211;48.548;2.704;2022-09-03T08:10:28;2.13;;;0.90;;
74679;SDS011;63211;48.548;2.704;2022-09-03T08:12:56;1.20;;;0.63;;
74679;SDS011;63211;48.548;2.704;2022-09-03T08:15:23;2.42;;;0.63;;
74679;SDS011;63211;48.548;2.704;2022-09-03T08:17:51;2.05;;;0.73;;
74679;SDS011;63211;48.548;2.704;2022-09-03T08:20:18;1.60;;;0.70;;
74679;SDS011;63211;48.548;2.704;2022-09-03T08:22:45;1.10;;;0.63;;
74679;SDS011;63211;48.548;2.704;2022-09-03T08:25:12;1.40;;;0.60;;
74679;SDS011;63211;48.548;2.704;2022-09-03T08:27:39;1.90;;;0.60;;
74679;SDS011;63211;48.548;2.704;2022-09-03T08:30:06;2.17;;;0.90;;
74679;SDS011;63211;48.548;2.704;2022-09-03T08:32:36;1.42;;;0.50;;
74679;SDS011;63211;48.548;2.704;2022-09-03T08:35:05;1.65;;;0.60;;
74679;SDS011;63211;48.548;2.704;2022-09-03T08:37:33;1.38;;;0.65;;
74679;SDS011;63211;48.548;2.704;2022-09-03T08:39:59;1.25;;;0.60;;
74679;SDS011;63211;48.548;2.704;2022-09-03T08:42:30;0.80;;;0.47;;
74679;SDS011;63211;48.548;2.704;2022-09-03T08:45:12;1.17;;;0.52;;
74679;SDS011;63211;48.548;2.704;2022-09-03T08:47:42;0.95;;;0.68;;
74679;SDS011;63211;48.548;2.704;2022-09-03T08:50:16;1.08;;;0.60;;
74679;SDS011;63211;48.548;2.704;2022-09-03T08:52:49;0.75;;;0.45;;
74679;SDS011;63211;48.548;2.704;2022-09-03T08:55:20;1.20;;;0.80;;
74679;SDS011;63211;48.548;2.704;2022-09-03T08:57:52;0.95;;;0.55;;
74679;SDS011;63211;48.548;2.704;2022-09-03T09:00:22;1.67;;;0.50;;
74679;SDS011;63211;48.548;2.704;2022-09-03T09:03:00;1.40;;;0.60;;
74679;SDS011;63211;48.548;2.704;2022-09-03T09:05:44;1.58;;;0.65;;
74679;SDS011;63211;48.548;2.704;2022-09-03T09:08:20;2.85;;;0.73;;
74679;SDS011;63211;48.548;2.704;2022-09-03T09:10:56;1.20;;;0.60;;
74679;SDS011;63211;48.548;2.704;2022-09-03T09:13:35;2.33;;;0.80;;
74679;SDS011;63211;48.548;2.704;2022-09-03T09:16:09;1.10;;;0.50;;
74679;SDS011;63211;48.548;2.704;2022-09-03T09:18:47;0.95;;;0.40;;
74679;SDS011;63211;48.548;2.704;2022-09-03T09:21:27;1.00;;;0.70;;
74679;SDS011;63211;48.548;2.704;2022-09-03T09:23:58;1.15;;;0.63;;
74679;SDS011;63211;48.548;2.704;2022-09-03T09:26:28;2.22;;;0.50;;
74679;SDS011;63211;48.548;2.704;2022-09-03T09:28:56;1.00;;;0.40;;
74679;SDS011;63211;48.548;2.704;2022-09-03T09:31:26;0.90;;;0.50;;
74679;SDS011;63211;48.548;2.704;2022-09-03T09:33:54;1.52;;;0.90;;
74679;SDS011;63211;48.548;2.704;2022-09-03T09:36:26;1.50;;;0.80;;
74679;SDS011;63211;48.548;2.704;2022-09-03T09:38:54;0.73;;;0.50;;
74679;SDS011;63211;48.548;2.704;2022-09-03T09:41:21;0.65;;;0.45;;
74679;SDS011;63211;48.548;2.704;2022-09-03T09:43:58;2.38;;;0.95;;
74679;SDS011;63211;48.548;2.704;2022-09-03T09:46:26;2.88;;;0.95;;
74679;SDS011;63211;48.548;2.704;2022-09-03T09:49:00;1.23;;;0.63;;
74679;SDS011;63211;48.548;2.704;2022-09-03T09:51:28;1.25;;;0.70;;
74679;SDS011;63211;48.548;2.704;2022-09-03T09:54:00;1.30;;;0.70;;
74679;SDS011;63211;48.548;2.704;2022-09-03T09:56:28;1.10;;;0.70;;
74679;SDS011;63211;48.548;2.704;2022-09-03T09:59:01;2.45;;;0.75;;
74679;SDS011;63211;48.548;2.704;2022-09-03T10:01:29;1.50;;;0.70;;
74679;SDS011;63211;48.548;2.704;2022-09-03T10:03:57;1.85;;;0.68;;
74679;SDS011;63211;48.548;2.704;2022-09-03T10:06:24;1.58;;;0.90;;
74679;SDS011;63211;48.548;2.704;2022-09-03T10:09:12;1.25;;;0.77;;
74679;SDS011;63211;48.548;2.704;2022-09-03T10:11:41;0.80;;;0.47;;
74679;SDS011;63211;48.548;2.704;2022-09-03T10:14:16;2.25;;;0.68;;
74679;SDS011;63211;48.548;2.704;2022-09-03T10:16:53;1.23;;;0.65;;
74679;SDS011;63211;48.548;2.704;2022-09-03T10:19:27;0.95;;;0.65;;
74679;SDS011;63211;48.548;2.704;2022-09-03T10:22:03;0.95;;;0.55;;
74679;SDS011;63211;48.548;2.704;2022-09-03T10:24:37;0.90;;;0.60;;
74679;SDS011;63211;48.548;2.704;2022-09-03T10:27:13;1.33;;;0.82;;
74679;SDS011;63211;48.548;2.704;2022-09-03T10:29:42;1.70;;;0.88;;
74679;SDS011;63211;48.548;2.704;2022-09-03T10:32:13;1.65;;;0.80;;
74679;SDS011;63211;48.548;2.704;2022-09-03T10:34:49;1.10;;;0.52;;
74679;SDS011;63211;48.548;2.704;2022-09-03T10:37:25;1.10;;;0.73;;
74679;SDS011;63211;48.548;2.704;2022-09-03T10:40:05;1.00;;;0.60;;
74679;SDS011;63211;48.548;2.704;2022-09-03T10:42:43;1.10;;;0.70;;
74679;SDS011;63211;48.548;2.704;2022-09-03T10:45:22;2.05;;;0.85;;
74679;SDS011;63211;48.548;2.704;2022-09-03T10:48:05;1.40;;;0.80;;
74679;SDS011;63211;48.548;2.704;2022-09-03T10:50:45;0.90;;;0.70;;
74679;SDS011;63211;48.548;2.704;2022-09-03T10:53:18;1.65;;;0.80;;
74679;SDS011;63211;48.548;2.704;2022-09-03T10:55:59;1.45;;;0.80;;
74679;SDS011;63211;48.548;2.704;2022-09-03T10:58:36;1.23;;;0.77;;
74679;SDS011;63211;48.548;2.704;2022-09-03T11:01:28;1.45;;;0.80;;
74679;SDS011;63211;48.548;2.704;2022-09-03T11:04:07;1.38;;;0.80;;
74679;SDS011;63211;48.548;2.704;2022-09-03T11:06:47;1.20;;;0.80;;
74679;SDS011;63211;48.548;2.704;2022-09-03T11:09:19;1.42;;;0.90;;
74679;SDS011;63211;48.548;2.704;2022-09-03T11:11:52;1.35;;;0.70;;
74679;SDS011;63211;48.548;2.704;2022-09-03T11:14:22;1.35;;;0.90;;
74679;SDS011;63211;48.548;2.704;2022-09-03T11:17:00;1.55;;;0.82;;
74679;SDS011;63211;48.548;2.704;2022-09-03T11:19:33;1.95;;;1.00;;
74679;SDS011;63211;48.548;2.704;2022-09-03T11:22:04;1.17;;;0.73;;
74679;SDS011;63211;48.548;2.704;2022-09-03T11:24:33;1.77;;;0.80;;
74679;SDS011;63211;48.548;2.704;2022-09-03T11:27:09;1.25;;;0.70;;
74679;SDS011;63211;48.548;2.704;2022-09-03T11:29:47;1.15;;;0.75;;
74679;SDS011;63211;48.548;2.704;2022-09-03T11:32:19;1.85;;;1.00;;
74679;SDS011;63211;48.548;2.704;2022-09-03T11:34:50;2.38;;;0.90;;
74679;SDS011;63211;48.548;2.704;2022-09-03T11:37:19;1.52;;;0.90;;
74679;SDS011;63211;48.548;2.704;2022-09-03T11:39:55;1.58;;;0.95;;
74679;SDS011;63211;48.548;2.704;2022-09-03T11:42:29;1.63;;;1.20;;
74679;SDS011;63211;48.548;2.704;2022-09-03T11:44:59;2.47;;;1.15;;
74679;SDS011;63211;48.548;2.704;2022-09-03T11:47:39;1.88;;;1.00;;
74679;SDS011;63211;48.548;2.704;2022-09-03T11:50:08;1.90;;;1.20;;
74679;SDS011;63211;48.548;2.704;2022-09-03T11:52:45;1.98;;;1.17;;
74679;SDS011;63211;48.548;2.704;2022-09-03T11:55:22;1.63;;;1.10;;
74679;SDS011;63211;48.548;2.704;2022-09-03T11:57:51;2.33;;;1.17;;
74679;SDS011;63211;48.548;2.704;2022-09-03T12:00:18;2.33;;;1.33;;
74679;SDS011;63211;48.548;2.704;2022-09-03T12:02:49;2.53;;;1.15;;
74679;SDS011;63211;48.548;2.704;2022-09-03T12:05:20;2.28;;;1.20;;
74679;SDS011;63211;48.548;2.704;2022-09-03T12:08:04;2.15;;;1.10;;
74679;SDS011;63211;48.548;2.704;2022-09-03T12:11:01;1.38;;;0.77;;
74679;SDS011;63211;48.548;2.704;2022-09-03T12:16:14;2.10;;;1.10;;
74679;SDS011;63211;48.548;2.704;2022-09-03T12:18:59;1.90;;;0.85;;
74679;SDS011;63211;48.548;2.704;2022-09-03T12:21:35;1.35;;;0.88;;
74679;SDS011;63211;48.548;2.704;2022-09-03T12:24:04;2.40;;;1.05;;
74679;SDS011;63211;48.548;2.704;2022-09-03T12:26:37;1.90;;;1.10;;
74679;SDS011;63211;48.548;2.704;2022-09-03T12:29:16;2.05;;;1.15;;
74679;SDS011;63211;48.548;2.704;2022-09-03T12:31:48;2.60;;;1.20;;
74679;SDS011;63211;48.548;2.704;2022-09-03T12:34:16;3.03;;;1.58;;
74679;SDS011;63211;48.548;2.704;2022-09-03T12:36:44;2.53;;;1.65;;
74679;SDS011;63211;48.548;2.704;2022-09-03T12:39:14;1.90;;;1.10;;
74679;SDS011;63211;48.548;2.704;2022-09-03T12:41:51;2.38;;;1.40;;
74679;SDS011;63211;48.548;2.704;2022-09-03T12:44:24;2.17;;;1.35;;
74679;SDS011;63211;48.548;2.704;2022-09-03T12:46:59;2.63;;;1.40;;
74679;SDS011;63211;48.548;2.704;2022-09-03T12:49:31;1.98;;;1.38;;
74679;SDS011;63211;48.548;2.704;2022-09-03T12:52:00;3.35;;;1.30;;
74679;SDS011;63211;48.548;2.704;2022-09-03T12:54:28;2.15;;;1.30;;
74679;SDS011;63211;48.548;2.704;2022-09-03T12:56:56;2.85;;;1.58;;
74679;SDS011;63211;48.548;2.704;2022-09-03T12:59:26;2.13;;;1.20;;
74679;SDS011;63211;48.548;2.704;2022-09-03T13:02:01;2.50;;;1.50;;
74679;SDS011;63211;48.548;2.704;2022-09-03T13:07:00;2.10;;;1.10;;
74679;SDS011;63211;48.548;2.704;2022-09-03T13:09:29;2.50;;;1.20;;
74679;SDS011;63211;48.548;2.704;2022-09-03T13:12:01;1.35;;;0.82;;
74679;SDS011;63211;48.548;2.704;2022-09-03T13:14:40;1.70;;;0.80;;
74679;SDS011;63211;48.548;2.704;2022-09-03T13:17:11;1.40;;;0.70;;
74679;SDS011;63211;48.548;2.704;2022-09-03T13:19:51;2.63;;;0.82;;
74679;SDS011;63211;48.548;2.704;2022-09-03T13:22:33;2.00;;;1.10;;
74679;SDS011;63211;48.548;2.704;2022-09-03T13:25:12;1.25;;;0.80;;
74679;SDS011;63211;48.548;2.704;2022-09-03T13:27:51;2.40;;;0.93;;
74679;SDS011;63211;48.548;2.704;2022-09-03T13:30:29;1.25;;;0.65;;
74679;SDS011;63211;48.548;2.704;2022-09-03T13:33:04;1.38;;;0.90;;
74679;SDS011;63211;48.548;2.704;2022-09-03T13:35:36;1.45;;;1.00;;
74679;SDS011;63211;48.548;2.704;2022-09-03T13:38:07;1.52;;;0.80;;
74679;SDS011;63211;48.548;2.704;2022-09-03T13:40:44;1.33;;;0.88;;
74679;SDS011;63211;48.548;2.704;2022-09-03T13:43:19;1.15;;;0.70;;
74679;SDS011;63211;48.548;2.704;2022-09-03T13:45:53;2.38;;;1.08;;
74679;SDS011;63211;48.548;2.704;2022-09-03T13:48:25;1.88;;;0.82;;
74679;SDS011;63211;48.548;2.704;2022-09-03T13:51:15;1.88;;;0.98;;
74679;SDS011;63211;48.548;2.704;2022-09-03T13:53:49;2.15;;;1.00;;
74679;SDS011;63211;48.548;2.704;2022-09-03T13:56:28;1.67;;;0.85;;
74679;SDS011;63211;48.548;2.704;2022-09-03T13:59:03;1.40;;;0.70;;
74679;SDS011;63211;48.548;2.704;2022-09-03T14:01:42;1.92;;;0.88;;
74679;SDS011;63211;48.548;2.704;2022-09-03T14:04:21;1.55;;;0.80;;
74679;SDS011;63211;48.548;2.704;2022-09-03T14:06:56;1.35;;;0.75;;
74679;SDS011;63211;48.548;2.704;2022-09-03T14:09:29;1.20;;;0.70;;
74679;SDS011;63211;48.548;2.704;2022-09-03T14:12:04;0.75;;;0.52;;
74679;SDS011;63211;48.548;2.704;2022-09-03T14:14:40;1.83;;;0.85;;
74679;SDS011;63211;48.548;2.704;2022-09-03T14:17:22;1.63;;;1.00;;
74679;SDS011;63211;48.548;2.704;2022-09-03T14:19:59;1.15;;;0.60;;
74679;SDS011;63211;48.548;2.704;2022-09-03T14:22:32;2.25;;;0.80;;
74679;SDS011;63211;48.548;2.704;2022-09-03T14:25:13;1.65;;;0.88;;
74679;SDS011;63211;48.548;2.704;2022-09-03T14:27:42;1.10;;;0.80;;
74679;SDS011;63211;48.548;2.704;2022-09-03T14:30:17;1.63;;;0.80;;
74679;SDS011;63211;48.548;2.704;2022-09-03T14:32:52;1.38;;;0.80;;
74679;SDS011;63211;48.548;2.704;2022-09-03T14:35:29;1.50;;;0.90;;
74679;SDS011;63211;48.548;2.704;2022-09-03T14:38:11;1.92;;;0.93;;
74679;SDS011;63211;48.548;2.704;2022-09-03T14:41:02;1.60;;;0.73;;
74679;SDS011;63211;48.548;2.704;2022-09-03T14:43:40;1.40;;;0.70;;
74679;SDS011;63211;48.548;2.704;2022-09-03T14:46:22;1.63;;;0.75;;
74679;SDS011;63211;48.548;2.704;2022-09-03T14:49:14;2.22;;;0.60;;
74679;SDS011;63211;48.548;2.704;2022-09-03T14:51:56;1.80;;;0.95;;
74679;SDS011;63211;48.548;2.704;2022-09-03T14:54:37;1.40;;;0.60;;
74679;SDS011;63211;48.548;2.704;2022-09-03T14:57:31;1.77;;;0.82;;
74679;SDS011;63211;48.548;2.704;2022-09-03T15:00:13;1.23;;;0.60;;
74679;SDS011;63211;48.548;2.704;2022-09-03T15:08:41;1.08;;;0.60;;
74679;SDS011;63211;48.548;2.704;2022-09-03T15:11:16;1.00;;;0.68;;
74679;SDS011;63211;48.548;2.704;2022-09-03T15:13:47;1.42;;;0.65;;
74679;SDS011;63211;48.548;2.704;2022-09-03T15:16:20;1.00;;;0.70;;
74679;SDS011;63211;48.548;2.704;2022-09-03T15:19:00;1.40;;;0.70;;
74679;SDS011;63211;48.548;2.704;2022-09-03T15:21:45;1.58;;;0.40;;
74679;SDS011;63211;48.548;2.704;2022-09-03T15:24:27;0.90;;;0.63;;
74679;SDS011;63211;48.548;2.704;2022-09-03T15:27:08;0.98;;;0.60;;
74679;SDS011;63211;48.548;2.704;2022-09-03T15:29:48;1.10;;;0.73;;
74679;SDS011;63211;48.548;2.704;2022-09-03T15:32:30;0.90;;;0.52;;